Time;durP1;ratioP1;P1;durP2;ratioP2;P2;SDS_P1;SDS_P2;PMS_P1;PMS_P2;Temp;Humidity;BMP_temperature;BMP_pressure;BME280_temperature;BME280_humidity;BME280_pressure;Samples;Min_cycle;Max_cycle;Signal;HPM_P1;HPM_P2
2022/09/24 00:00:30;;;;;;;32.33;29.23;;;;;;;13.02;95.78;101234.25;5023761;28;20067;-79
2022/09/24 00:02:55;;;;;;;33.33;30.33;;;;;;;12.95;95.87;101229.69;5028760;28;20485;-78
2022/09/24 00:05:21;;;;;;;32.70;29.70;;;;;;;12.90;95.67;101213.63;5039785;28;20035;-79
2022/09/24 00:07:46;;;;;;;34.92;31.73;;;;;;;13.00;95.69;101224.91;5046381;28;20139;-79
2022/09/24 00:10:11;;;;;;;33.35;30.23;;;;;;;12.94;95.87;101221.06;5044587;28;20040;-79
2022/09/24 00:12:37;;;;;;;33.40;30.38;;;;;;;12.96;95.63;101224.38;5042607;28;20397;-79
2022/09/24 00:15:03;;;;;;;34.95;31.67;;;;;;;12.96;95.23;101215.72;5044117;28;20074;-78
2022/09/24 00:17:29;;;;;;;33.90;30.70;;;;;;;13.00;95.12;101211.91;5045294;28;20017;-79
2022/09/24 00:19:54;;;;;;;35.83;32.53;;;;;;;12.84;95.99;101208.94;5030569;28;20102;-78
2022/09/24 00:22:19;;;;;;;34.97;31.75;;;;;;;12.86;95.75;101204.47;5049988;28;20531;-79
2022/09/24 00:27:29;;;;;;;37.00;33.70;;;;;;;12.93;95.70;101202.97;5046445;28;20055;-79
2022/09/24 00:29:54;;;;;;;39.25;35.80;;;;;;;12.95;95.47;101203.66;5033177;28;20025;-79
2022/09/24 00:32:21;;;;;;;35.33;32.03;;;;;;;12.98;94.73;101206.00;5050332;28;20061;-79
2022/09/24 00:34:47;;;;;;;34.30;31.10;;;;;;;12.87;95.47;101208.72;5036403;28;20026;-77
2022/09/24 00:37:12;;;;;;;34.40;31.20;;;;;;;12.95;95.50;101209.69;5049069;28;20036;-79
2022/09/24 00:39:38;;;;;;;35.47;32.28;;;;;;;12.90;95.43;101208.44;5040341;28;20460;-79
2022/09/24 00:42:04;;;;;;;35.28;31.98;;;;;;;12.88;94.92;101202.53;5031351;28;20457;-79
2022/09/24 00:44:44;;;;;;;35.50;32.30;;;;;;;12.94;95.49;101205.44;5039738;28;20025;-79
2022/09/24 00:47:28;;;;;;;35.10;31.98;;;;;;;12.91;95.49;101204.91;5045943;28;20064;-79
2022/09/24 00:50:05;;;;;;;35.25;32.03;;;;;;;12.87;95.05;101187.88;5039150;28;20488;-80
2022/09/24 00:52:31;;;;;;;36.88;33.58;;;;;;;12.94;94.69;101196.81;5034050;28;20033;-79
2022/09/24 00:54:56;;;;;;;37.50;34.15;;;;;;;12.94;94.69;101199.41;5041491;28;20029;-79
2022/09/24 00:57:23;;;;;;;37.90;34.40;;;;;;;12.89;94.69;101191.97;5046003;28;20721;-79
2022/09/24 00:59:48;;;;;;;39.95;36.25;;;;;;;12.85;95.09;101187.19;5040561;28;20027;-80
2022/09/24 01:02:14;;;;;;;41.10;37.40;;;;;;;12.72;94.99;101170.00;5045763;28;20025;-79
2022/09/24 01:04:39;;;;;;;37.22;33.80;;;;;;;12.82;94.61;101185.66;5039217;28;20021;-80
2022/09/24 01:07:05;;;;;;;37.58;34.10;;;;;;;12.79;94.72;101179.88;5045266;28;20134;-79
2022/09/24 01:09:31;;;;;;;36.63;33.17;;;;;;;12.76;94.83;101179.19;5029646;28;20128;-81
2022/09/24 01:12:09;;;;;;;37.13;33.55;;;;;;;12.80;94.84;101184.16;5047893;28;20064;-80
2022/09/24 01:14:41;;;;;;;36.30;32.88;;;;;;;12.69;95.29;101183.28;5029861;28;20033;-80
2022/09/24 01:17:43;;;;;;;35.00;31.80;;;;;;;12.80;95.05;101171.16;5039906;28;20051;-79
2022/09/24 01:20:45;;;;;;;34.72;31.52;;;;;;;12.80;95.09;101166.75;5042133;28;20039;-81
2022/09/24 01:23:22;;;;;;;33.38;30.40;;;;;;;12.69;95.33;101175.47;5040025;28;20120;-80
2022/09/24 01:25:53;;;;;;;33.72;30.58;;;;;;;12.61;95.47;101172.69;5045846;28;20057;-80
2022/09/24 01:28:56;;;;;;;33.55;30.42;;;;;;;12.74;94.72;101162.91;5030545;28;20309;-81
2022/09/24 01:31:28;;;;;;;31.98;28.83;;;;;;;12.51;95.36;101155.41;5040126;28;20017;-80
2022/09/24 01:33:58;;;;;;;31.23;28.33;;;;;;;12.67;94.60;101164.38;5044653;28;20143;-81
2022/09/24 01:36:26;;;;;;;30.85;27.85;;;;;;;12.68;94.73;101163.41;5043728;28;20035;-81
2022/09/24 01:38:54;;;;;;;29.23;26.50;;;;;;;12.65;94.56;101158.47;5030411;28;20021;-80
2022/09/24 01:41:21;;;;;;;30.40;27.63;;;;;;;12.64;94.36;101149.00;5044434;28;20083;-80
2022/09/24 01:43:47;;;;;;;28.65;25.98;;;;;;;12.63;94.29;101155.19;5029923;28;20056;-78
2022/09/24 01:46:15;;;;;;;30.45;27.55;;;;;;;12.61;94.10;101145.84;5045380;28;20029;-81
2022/09/24 01:48:41;;;;;;;27.88;25.27;;;;;;;12.63;94.35;101149.16;5046225;28;20123;-80
2022/09/24 01:51:13;;;;;;;28.70;26.00;;;;;;;12.61;94.62;101145.84;5045402;28;20095;-80
2022/09/24 01:53:56;;;;;;;27.63;24.92;;;;;;;12.58;94.49;101146.94;5028734;28;20028;-80
2022/09/24 01:56:39;;;;;;;28.42;25.83;;;;;;;12.49;95.56;101142.50;5036757;28;20365;-80
2022/09/24 01:59:27;;;;;;;27.73;25.20;;;;;;;12.55;95.03;101141.16;5044691;28;20028;-80
2022/09/24 02:02:01;;;;;;;27.17;24.63;;;;;;;12.52;94.68;101137.06;5029204;28;20155;-80
2022/09/24 02:04:29;;;;;;;28.10;25.48;;;;;;;12.53;94.90;101123.09;5039204;28;20052;-80
2022/09/24 02:07:02;;;;;;;27.92;25.33;;;;;;;12.53;94.44;101130.88;5041969;28;20043;-80
2022/09/24 02:09:29;;;;;;;27.45;24.95;;;;;;;12.60;94.17;101132.00;5043922;28;20036;-80
2022/09/24 02:11:57;;;;;;;27.63;25.13;;;;;;;12.57;94.90;101137.50;5047097;28;20029;-81
2022/09/24 02:14:24;;;;;;;26.63;24.08;;;;;;;12.58;95.06;101131.31;5031564;28;20048;-81
2022/09/24 02:16:51;;;;;;;26.58;24.13;;;;;;;12.59;94.60;101132.97;5035008;28;20029;-81
2022/09/24 02:19:20;;;;;;;26.83;24.33;;;;;;;12.52;94.74;101131.03;5042756;28;20603;-80
2022/09/24 02:21:46;;;;;;;24.98;22.48;;;;;;;12.59;94.23;101129.53;5044915;28;20033;-81
2022/09/24 02:24:21;;;;;;;23.98;21.77;;;;;;;12.51;94.82;101114.59;5034873;28;20048;-80
2022/09/24 02:26:47;;;;;;;22.95;20.83;;;;;;;12.55;94.60;101121.16;5027857;28;20101;-81
2022/09/24 02:29:13;;;;;;;24.45;22.05;;;;;;;12.60;93.80;101121.59;5031398;28;20041;-81
2022/09/24 02:31:51;;;;;;;24.13;21.92;;;;;;;12.55;94.79;101115.97;5044253;28;20028;-81
2022/09/24 02:34:26;;;;;;;25.77;23.38;;;;;;;12.44;95.63;101118.66;5035332;28;20029;-81
2022/09/24 02:36:58;;;;;;;23.38;21.17;;;;;;;12.53;94.83;101112.69;5045107;28;20104;-81
2022/09/24 02:39:24;;;;;;;22.40;20.30;;;;;;;12.44;94.84;101103.03;5036082;28;20033;-81
2022/09/24 02:41:51;;;;;;;22.40;20.25;;;;;;;12.49;94.33;101111.28;5041857;28;20419;-79
2022/09/24 02:44:18;;;;;;;22.40;20.30;;;;;;;12.46;94.28;101103.75;5036835;28;20515;-76
2022/09/24 02:46:48;;;;;;;21.38;19.35;;;;;;;12.51;95.10;101119.78;5024722;28;20025;-78
2022/09/24 02:49:14;;;;;;;22.50;20.40;;;;;;;12.54;94.40;101113.50;5042029;28;20041;-78
2022/09/24 02:51:40;;;;;;;21.38;19.38;;;;;;;12.49;94.19;101100.88;5039690;28;20025;-79
2022/09/24 02:54:06;;;;;;;20.52;18.58;;;;;;;12.51;94.02;101098.16;5041595;28;20122;-79
2022/09/24 02:56:32;;;;;;;21.05;18.85;;;;;;;12.51;94.83;101104.19;5044636;28;20768;-78
2022/09/24 02:58:57;;;;;;;21.02;18.92;;;;;;;12.51;94.87;101093.78;5028688;28;20381;-79
2022/09/24 03:01:23;;;;;;;21.20;19.10;;;;;;;12.51;95.07;101098.97;5028154;28;20083;-79
2022/09/24 03:03:50;;;;;;;20.90;18.90;;;;;;;12.48;94.89;101101.84;5038863;28;20048;-79
2022/09/24 03:06:15;;;;;;;20.88;18.90;;;;;;;12.38;95.00;101087.94;5037015;28;20045;-79
2022/09/24 03:08:42;;;;;;;21.20;19.20;;;;;;;12.48;94.85;101094.03;5028632;28;20016;-79
2022/09/24 03:11:09;;;;;;;21.40;19.30;;;;;;;12.50;95.18;101092.09;5041665;28;20500;-79
2022/09/24 03:13:35;;;;;;;21.23;19.33;;;;;;;12.49;95.07;101091.28;5041116;28;20067;-79
2022/09/24 03:16:01;;;;;;;21.45;19.45;;;;;;;12.52;94.81;101095.44;5030627;28;20474;-80
2022/09/24 03:18:26;;;;;;;20.88;19.00;;;;;;;12.48;95.06;101092.25;5040638;28;20492;-80
2022/09/24 03:21:00;;;;;;;20.50;18.52;;;;;;;12.49;94.95;101100.88;5028684;28;20039;-79
2022/09/24 03:23:25;;;;;;;20.85;18.75;;;;;;;12.51;94.44;101098.97;5034038;28;20370;-80
2022/09/24 03:25:51;;;;;;;20.90;18.90;;;;;;;12.50;94.78;101092.09;5037355;28;20055;-80
2022/09/24 03:28:17;;;;;;;21.35;19.35;;;;;;;12.44;94.59;101090.03;5043407;28;20473;-80
2022/09/24 03:30:58;;;;;;;20.95;19.05;;;;;;;12.44;94.40;101080.47;5028332;28;20479;-79
2022/09/24 03:33:24;;;;;;;21.40;19.30;;;;;;;12.47;94.39;101077.59;5035425;28;20604;-79
2022/09/24 03:35:54;;;;;;;21.83;19.73;;;;;;;12.48;95.22;101083.63;5040150;28;20436;-79
2022/09/24 03:38:19;;;;;;;22.45;20.42;;;;;;;12.46;94.48;101075.13;5039323;28;20399;-80
2022/09/24 03:40:45;;;;;;;23.00;20.80;;;;;;;12.49;95.21;101080.06;5038720;28;20493;-79
2022/09/24 03:43:10;;;;;;;21.90;19.80;;;;;;;12.48;94.42;101073.22;5039449;28;20366;-79
2022/09/24 03:45:36;;;;;;;22.15;19.90;;;;;;;12.52;95.21;101081.59;5033687;28;20040;-80
2022/09/24 03:48:02;;;;;;;22.75;20.45;;;;;;;12.45;94.83;101063.09;5036596;28;20033;-80
2022/09/24 03:50:27;;;;;;;22.23;20.13;;;;;;;12.41;94.88;101057.31;5043341;28;20377;-79
2022/09/24 03:52:53;;;;;;;21.80;19.67;;;;;;;12.49;94.88;101075.69;5031956;28;20074;-79
2022/09/24 03:55:18;;;;;;;22.38;20.17;;;;;;;12.43;95.26;101070.19;5040727;28;20488;-80
2022/09/24 03:57:43;;;;;;;22.30;20.10;;;;;;;12.45;95.06;101068.28;5047710;28;20060;-79
2022/09/24 04:00:10;;;;;;;21.63;19.52;;;;;;;12.45;95.18;101069.13;5036632;28;20488;-80
2022/09/24 04:02:35;;;;;;;21.83;19.83;;;;;;;12.40;95.57;101070.47;5030429;28;20119;-80
2022/09/24 04:05:00;;;;;;;21.92;19.83;;;;;;;12.39;95.48;101063.63;5028687;28;20607;-80
2022/09/24 04:07:26;;;;;;;22.63;20.42;;;;;;;12.40;95.60;101065.25;5045600;28;20029;-80
2022/09/24 04:09:51;;;;;;;22.95;20.65;;;;;;;12.39;95.78;101048.00;5041961;28;20527;-79
2022/09/24 04:12:17;;;;;;;21.92;19.75;;;;;;;12.38;95.66;101056.75;5045858;28;20599;-79
2022/09/24 04:14:42;;;;;;;22.10;20.00;;;;;;;12.36;95.46;101062.09;5036812;28;20468;-79
2022/09/24 04:17:08;;;;;;;23.42;21.23;;;;;;;12.38;95.41;101051.53;5045885;28;20433;-80
2022/09/24 04:19:34;;;;;;;22.00;20.00;;;;;;;12.40;95.52;101060.06;5032097;28;20058;-78
2022/09/24 04:21:59;;;;;;;21.10;19.20;;;;;;;12.36;95.79;101058.66;5043856;28;20021;-79
2022/09/24 04:24:25;;;;;;;22.23;20.13;;;;;;;12.38;95.97;101059.34;5036330;28;20414;-80
2022/09/24 04:26:51;;;;;;;23.17;20.88;;;;;;;12.31;95.90;101053.03;5034372;28;20187;-79
2022/09/24 04:29:17;;;;;;;22.50;20.40;;;;;;;12.36;96.28;101053.47;5032260;28;20455;-79
2022/09/24 04:31:42;;;;;;;23.83;21.50;;;;;;;12.28;96.63;101055.91;5045937;28;20586;-79
2022/09/24 04:34:08;;;;;;;22.13;20.13;;;;;;;12.36;96.23;101053.47;5048002;28;20040;-79
2022/09/24 04:36:34;;;;;;;23.00;20.75;;;;;;;12.19;96.88;101047.09;5048186;28;20044;-79
2022/09/24 04:38:59;;;;;;;23.15;20.98;;;;;;;12.25;96.46;101040.53;5032281;28;20029;-79
2022/09/24 04:41:28;;;;;;;22.58;20.48;;;;;;;12.25;97.14;101046.56;5030975;28;20040;-79
2022/09/24 04:43:56;;;;;;;23.23;21.02;;;;;;;12.32;96.95;101052.88;5028104;28;20044;-78
2022/09/24 04:46:21;;;;;;;23.25;20.95;;;;;;;12.28;96.61;101042.91;5025367;28;20074;-79
2022/09/24 04:48:46;;;;;;;23.38;21.25;;;;;;;12.33;96.47;101054.56;5048808;28;20037;-79
2022/09/24 04:51:12;;;;;;;23.25;21.15;;;;;;;12.30;96.75;101049.59;5048764;28;20037;-79
2022/09/24 04:53:37;;;;;;;25.25;22.85;;;;;;;12.33;96.09;101053.72;5046564;28;20644;-79
2022/09/24 04:56:04;;;;;;;25.15;22.85;;;;;;;12.29;96.48;101041.94;5046711;28;20036;-80
2022/09/24 04:58:30;;;;;;;24.27;22.08;;;;;;;12.34;96.30;101044.97;5047297;28;20017;-79
2022/09/24 05:00:55;;;;;;;24.58;22.17;;;;;;;12.19;97.22;101037.50;5044308;28;20389;-80
2022/09/24 05:03:21;;;;;;;25.13;22.63;;;;;;;12.22;97.46;101047.66;5047259;28;20027;-80
2022/09/24 05:05:46;;;;;;;24.55;22.25;;;;;;;12.29;97.35;101039.34;5039441;28;20028;-80
2022/09/24 05:08:12;;;;;;;22.98;20.88;;;;;;;12.29;96.71;101047.97;5035197;28;20028;-79
2022/09/24 05:10:38;;;;;;;24.25;21.98;;;;;;;12.28;96.96;101035.09;5040562;28;20115;-80
2022/09/24 05:13:04;;;;;;;24.50;22.20;;;;;;;12.20;97.01;101049.56;5048264;28;20583;-80
2022/09/24 05:15:30;;;;;;;24.00;21.80;;;;;;;12.23;97.32;101046.72;5035975;28;20107;-80
2022/09/24 05:17:56;;;;;;;23.63;21.33;;;;;;;12.18;98.10;101054.06;5030622;28;20147;-80
2022/09/24 05:20:21;;;;;;;23.33;21.13;;;;;;;12.18;97.59;101061.88;5041340;28;20219;-80
2022/09/24 05:22:48;;;;;;;21.90;19.88;;;;;;;12.13;98.07;101051.03;5041938;28;20033;-80
2022/09/24 05:25:14;;;;;;;20.60;18.70;;;;;;;12.05;98.04;101045.66;5046573;28;20025;-79
2022/09/24 05:27:44;;;;;;;21.13;19.13;;;;;;;12.12;97.78;101049.38;5045547;28;20568;-80
2022/09/24 05:30:10;;;;;;;19.17;17.27;;;;;;;12.25;97.37;101061.34;5028048;28;20025;-79
2022/09/24 05:32:36;;;;;;;19.08;17.35;;;;;;;12.19;97.31;101063.50;5043244;28;20025;-80
2022/09/24 05:35:01;;;;;;;20.52;18.63;;;;;;;12.17;97.85;101062.81;5030368;28;20021;-78
2022/09/24 05:37:27;;;;;;;19.83;17.92;;;;;;;12.10;97.79;101053.91;5043803;28;20074;-79
2022/09/24 05:39:53;;;;;;;18.38;16.67;;;;;;;12.22;97.51;101052.88;5038837;28;20068;-79
2022/09/24 05:42:19;;;;;;;19.10;17.40;;;;;;;12.11;97.43;101055.53;5043895;28;20025;-79
2022/09/24 05:44:45;;;;;;;19.10;17.33;;;;;;;12.21;97.46;101059.03;5028420;28;20033;-79
2022/09/24 05:47:10;;;;;;;19.58;17.77;;;;;;;12.21;97.54;101072.03;5046836;28;20036;-80
2022/09/24 05:49:36;;;;;;;20.02;18.23;;;;;;;12.18;98.18;101072.28;5023378;28;20066;-80
2022/09/24 05:52:02;;;;;;;19.52;17.73;;;;;;;12.22;97.59;101073.66;5036710;28;20168;-80
2022/09/24 05:54:27;;;;;;;21.15;19.25;;;;;;;12.23;97.57;101072.72;5036318;28;20116;-80
2022/09/24 05:56:52;;;;;;;21.67;19.67;;;;;;;12.29;97.71;101080.94;5041870;28;20021;-79
2022/09/24 05:59:18;;;;;;;21.15;19.10;;;;;;;12.29;97.49;101081.78;5028856;28;20029;-80
2022/09/24 06:01:43;;;;;;;21.15;19.15;;;;;;;12.30;97.02;101074.78;5038099;28;20098;-80
2022/09/24 06:04:10;;;;;;;21.20;19.30;;;;;;;12.33;97.03;101079.72;5031354;28;20033;-79
2022/09/24 06:06:36;;;;;;;20.75;18.83;;;;;;;12.27;96.90;101064.63;5037507;28;20023;-78
2022/09/24 06:09:02;;;;;;;22.13;20.13;;;;;;;12.26;97.29;101071.63;5035725;28;20033;-79
2022/09/24 06:11:33;;;;;;;22.52;20.42;;;;;;;12.34;97.17;101086.59;5033479;28;20021;-81
2022/09/24 06:14:03;;;;;;;22.02;19.90;;;;;;;12.36;97.37;101071.66;5043541;28;20578;-81
2022/09/24 06:16:30;;;;;;;22.45;20.42;;;;;;;12.31;97.58;101077.25;5046763;28;20060;-80
2022/09/24 06:18:59;;;;;;;22.27;20.23;;;;;;;12.38;96.67;101087.94;5045176;28;20028;-80
2022/09/24 06:21:24;;;;;;;23.40;21.10;;;;;;;12.41;96.76;101082.50;5031886;28;20112;-80
2022/09/24 06:23:49;;;;;;;24.02;21.83;;;;;;;12.32;97.50;101086.69;5043540;28;20460;-78
2022/09/24 06:26:15;;;;;;;24.13;21.83;;;;;;;12.34;96.99;101087.41;5038833;28;20467;-79
2022/09/24 06:28:41;;;;;;;24.02;21.83;;;;;;;12.31;97.22;101081.63;5047434;28;20608;-79
2022/09/24 06:31:08;;;;;;;23.67;21.38;;;;;;;12.40;97.09;101089.50;5030001;28;20025;-79
2022/09/24 06:33:33;;;;;;;24.17;21.92;;;;;;;12.36;96.99;101080.28;5047804;28;20421;-78
2022/09/24 06:36:01;;;;;;;25.52;23.02;;;;;;;12.38;97.64;101093.16;5029680;28;20873;-79
2022/09/24 06:38:26;;;;;;;24.33;22.13;;;;;;;12.40;97.95;101086.06;5029107;28;20533;-79
2022/09/24 06:40:52;;;;;;;24.35;22.15;;;;;;;12.39;97.46;101089.63;5029795;28;20120;-78
2022/09/24 06:43:18;;;;;;;25.42;23.00;;;;;;;12.30;97.98;101090.41;5047097;28;20068;-79
2022/09/24 06:45:44;;;;;;;26.35;23.88;;;;;;;12.33;98.42;101084.91;5047142;28;20035;-78
2022/09/24 06:48:11;;;;;;;26.05;23.65;;;;;;;12.34;98.50;101102.19;5047479;28;20112;-79
2022/09/24 06:50:42;;;;;;;25.83;23.45;;;;;;;12.41;98.44;101092.91;5046693;28;20044;-79
2022/09/24 06:53:09;;;;;;;26.67;24.27;;;;;;;12.35;98.98;101109.03;5048055;28;20102;-79
2022/09/24 06:55:36;;;;;;;25.33;23.05;;;;;;;12.33;98.27;101100.53;5047369;28;20232;-78
2022/09/24 06:58:03;;;;;;;24.83;22.60;;;;;;;12.39;98.64;101105.25;5023186;28;20048;-79
2022/09/24 07:00:28;;;;;;;24.75;22.48;;;;;;;12.35;98.40;101098.63;5037395;28;20017;-79
2022/09/24 07:02:54;;;;;;;24.27;22.08;;;;;;;12.42;97.79;101099.75;5042341;28;20059;-79
2022/09/24 07:05:19;;;;;;;25.08;22.77;;;;;;;12.41;98.10;101106.75;5031710;28;20021;-78
2022/09/24 07:07:45;;;;;;;25.02;22.83;;;;;;;12.39;98.49;101110.44;5031286;28;20029;-78
2022/09/24 07:10:11;;;;;;;25.05;22.70;;;;;;;12.31;99.14;101098.06;5029142;28;20484;-78
2022/09/24 07:12:36;;;;;;;25.88;23.38;;;;;;;12.31;99.42;101112.84;5026812;28;20025;-79
2022/09/24 07:15:02;;;;;;;25.20;22.90;;;;;;;12.25;99.32;101103.78;5028604;28;20026;-78
2022/09/24 07:17:28;;;;;;;25.20;22.90;;;;;;;12.21;99.47;101103.22;5029654;28;20033;-78
2022/09/24 07:19:54;;;;;;;25.50;23.25;;;;;;;12.31;99.62;101111.06;5034592;28;20139;-79
2022/09/24 07:22:20;;;;;;;24.00;21.67;;;;;;;12.37;99.33;101113.16;5033630;28;20528;-78
2022/09/24 07:24:47;;;;;;;24.60;22.20;;;;;;;12.28;99.73;101107.91;5037614;28;20088;-79
2022/09/24 07:27:13;;;;;;;23.38;21.27;;;;;;;12.38;99.28;101121.78;5036478;28;20128;-78
2022/09/24 07:29:39;;;;;;;24.85;22.42;;;;;;;12.27;99.56;101116.66;5032844;28;20451;-78
2022/09/24 07:32:04;;;;;;;24.90;22.52;;;;;;;12.27;100.00;101116.66;5024529;28;20477;-79
2022/09/24 07:34:30;;;;;;;24.23;22.13;;;;;;;12.40;99.79;101122.47;5024174;28;20124;-78
2022/09/24 07:36:56;;;;;;;23.83;21.63;;;;;;;12.42;99.56;101125.78;5029990;28;20107;-79
2022/09/24 07:39:23;;;;;;;24.50;22.15;;;;;;;12.42;99.49;101130.97;5035882;28;20045;-79
2022/09/24 07:41:50;;;;;;;27.38;21.75;;;;;;;12.44;99.27;101134.25;5032552;28;20029;-78
2022/09/24 07:44:24;;;;;;;23.77;21.65;;;;;;;12.42;99.11;101125.78;5027219;28;20044;-79
2022/09/24 07:46:50;;;;;;;23.40;21.30;;;;;;;12.41;98.96;101134.53;5023968;28;20071;-78
2022/09/24 07:49:15;;;;;;;23.77;21.67;;;;;;;12.36;99.28;101131.50;5035527;28;20389;-78
2022/09/24 07:51:41;;;;;;;23.45;21.27;;;;;;;12.38;99.16;101134.78;5029475;28;20412;-79
2022/09/24 07:54:07;;;;;;;24.88;22.67;;;;;;;12.42;99.42;101136.19;5027057;28;20662;-78
2022/09/24 07:56:32;;;;;;;24.52;22.08;;;;;;;12.43;100.00;101143.03;5018103;28;20445;-79
2022/09/24 07:58:58;;;;;;;24.77;22.48;;;;;;;12.49;99.63;101137.28;5032062;28;20029;-79
2022/09/24 08:01:24;;;;;;;23.90;21.70;;;;;;;12.45;99.94;101136.75;5033496;28;20040;-79
2022/09/24 08:03:51;;;;;;;23.65;21.30;;;;;;;12.51;100.00;101140.63;5030321;28;20389;-78
2022/09/24 08:06:17;;;;;;;23.75;21.65;;;;;;;12.51;100.00;101151.03;5028960;28;20013;-79
2022/09/24 08:08:42;;;;;;;23.27;21.08;;;;;;;12.51;99.82;101135.41;5029799;28;20025;-79
2022/09/24 08:11:12;;;;;;;24.40;22.20;;;;;;;12.50;100.00;101157.16;5034526;28;20025;-79
2022/09/24 08:13:37;;;;;;;22.65;20.55;;;;;;;12.54;100.00;101148.13;5036021;28;20111;-79
2022/09/24 08:16:04;;;;;;;25.00;22.60;;;;;;;12.49;100.00;101143.31;5039056;28;20564;-78
2022/09/24 08:18:31;;;;;;;23.75;21.55;;;;;;;12.53;100.00;101151.69;5034833;28;20385;-78
2022/09/24 08:21:10;;;;;;;23.58;21.20;;;;;;;12.62;99.91;101158.75;5031137;28;20045;-79
2022/09/24 08:23:37;;;;;;;22.65;20.55;;;;;;;12.62;99.33;101153.53;5008902;28;20037;-79
2022/09/24 08:26:03;;;;;;;22.83;20.73;;;;;;;12.65;99.70;101157.66;5029342;28;20037;-78
2022/09/24 08:28:30;;;;;;;24.13;21.80;;;;;;;12.55;99.68;101160.19;5013413;28;20096;-79
2022/09/24 08:31:00;;;;;;;23.65;21.48;;;;;;;12.48;100.00;101161.66;5031621;28;20029;-79
2022/09/24 08:33:31;;;;;;;24.52;22.23;;;;;;;12.61;100.00;101171.88;5035767;28;20124;-79
2022/09/24 08:35:58;;;;;;;24.65;22.17;;;;;;;12.59;99.63;101166.78;5034987;28;20033;-78
2022/09/24 08:38:24;;;;;;;23.77;21.57;;;;;;;12.68;99.08;101173.84;5036868;28;20029;-79
2022/09/24 08:41:03;;;;;;;24.25;21.95;;;;;;;12.69;98.87;101174.66;5019657;28;20071;-79
2022/09/24 08:43:43;;;;;;;24.15;21.95;;;;;;;12.71;99.21;101175.34;5048172;28;20039;-79
2022/09/24 08:49:33;;;;;;;23.67;21.42;;;;;;;12.60;100.00;101171.03;5035042;28;20089;-78
2022/09/24 08:52:02;;;;;;;23.17;21.08;;;;;;;12.68;99.67;101179.03;5038454;28;20033;-79
2022/09/24 08:54:29;;;;;;;23.48;21.38;;;;;;;12.61;100.00;101177.88;5041563;28;20031;-79
2022/09/24 08:56:56;;;;;;;24.17;21.85;;;;;;;12.69;99.31;101180.69;5035152;28;20040;-79
2022/09/24 08:59:30;;;;;;;23.60;21.40;;;;;;;12.63;99.16;101170.78;5048843;28;20067;-79
2022/09/24 09:02:17;;;;;;;23.58;21.38;;;;;;;12.72;100.00;101182.19;5047694;28;20249;-79
2022/09/24 09:04:53;;;;;;;23.52;21.33;;;;;;;12.72;99.17;101184.78;5044025;28;20028;-79
2022/09/24 09:07:31;;;;;;;22.92;20.73;;;;;;;12.75;99.40;101184.53;5028886;28;20031;-79
2022/09/24 09:09:59;;;;;;;23.98;21.52;;;;;;;12.67;99.72;101192.16;5044103;28;20491;-80
2022/09/24 09:12:38;;;;;;;22.95;20.85;;;;;;;12.72;99.50;101185.59;5046621;28;20044;-80
2022/09/24 09:15:11;;;;;;;22.92;20.73;;;;;;;12.70;99.47;101191.91;5045081;28;20489;-79
2022/09/24 09:17:41;;;;;;;23.38;21.13;;;;;;;12.69;100.00;101201.50;5047208;28;20096;-78
2022/09/24 09:20:14;;;;;;;22.48;20.38;;;;;;;12.70;99.82;101197.94;5043622;28;20037;-79
2022/09/24 09:22:46;;;;;;;22.02;19.85;;;;;;;12.70;99.49;101197.94;5045510;28;20024;-79
2022/09/24 09:25:27;;;;;;;25.08;22.77;;;;;;;12.76;99.65;101207.84;5042681;28;20044;-78
2022/09/24 09:28:13;;;;;;;22.85;20.65;;;;;;;12.79;99.09;101200.69;5048782;28;20045;-79
2022/09/24 09:30:52;;;;;;;23.40;21.10;;;;;;;12.76;100.00;101205.22;5042671;28;20021;-79
2022/09/24 09:33:55;;;;;;;22.48;20.35;;;;;;;12.82;99.49;101205.66;5045715;28;20021;-79
2022/09/24 09:36:44;;;;;;;22.55;20.45;;;;;;;12.89;99.46;101207.59;5037789;28;20058;-80
2022/09/24 09:39:36;;;;;;;23.30;21.08;;;;;;;12.89;99.05;101206.78;5041715;28;20091;-78
2022/09/24 09:42:35;;;;;;;22.77;20.75;;;;;;;12.91;99.40;101208.31;5030885;28;20037;-79
2022/09/24 09:45:23;;;;;;;23.67;21.38;;;;;;;12.75;100.00;101198.38;5029460;28;20124;-80
2022/09/24 09:47:56;;;;;;;23.75;21.35;;;;;;;12.83;100.00;101213.34;5032578;28;20029;-78
2022/09/24 09:50:36;;;;;;;24.50;22.15;;;;;;;12.76;100.00;101220.84;5038425;28;20464;-78
2022/09/24 09:53:04;;;;;;;25.00;22.60;;;;;;;12.75;100.00;101215.78;5035976;28;20068;-79
2022/09/24 09:55:36;;;;;;;24.52;22.13;;;;;;;12.73;100.00;101218.53;5034588;28;20028;-78
2022/09/24 09:58:23;;;;;;;24.15;21.88;;;;;;;12.85;100.00;101221.03;5041490;28;20032;-78
2022/09/24 10:00:49;;;;;;;23.98;21.77;;;;;;;12.81;100.00;101214.44;5036129;28;20028;-78
2022/09/24 10:03:25;;;;;;;23.17;20.98;;;;;;;12.87;100.00;101213.91;5044414;28;20036;-78
2022/09/24 10:05:53;;;;;;;24.95;22.60;;;;;;;12.85;100.00;101210.63;5038981;28;20035;-79
2022/09/24 10:08:21;;;;;;;23.83;21.48;;;;;;;12.76;100.00;101205.22;5040304;28;20499;-78
2022/09/24 10:10:55;;;;;;;24.70;22.38;;;;;;;12.79;100.00;101216.31;5046342;28;20060;-78
2022/09/24 10:13:21;;;;;;;24.98;22.42;;;;;;;12.77;100.00;101214.69;5044830;28;20032;-77
2022/09/24 10:15:58;;;;;;;24.85;22.52;;;;;;;12.87;100.00;101219.13;5044238;28;20034;-78
2022/09/24 10:18:36;;;;;;;23.25;21.05;;;;;;;12.90;100.00;101221.44;5023777;28;20025;-78
2022/09/24 10:21:07;;;;;;;24.65;22.35;;;;;;;12.88;100.00;101212.94;5035816;28;20365;-78
2022/09/24 10:23:33;;;;;;;24.02;21.80;;;;;;;12.95;100.00;101211.47;5029671;28;20029;-78
2022/09/24 10:26:00;;;;;;;24.92;22.40;;;;;;;12.90;100.00;101217.09;5027210;28;20124;-79
2022/09/24 10:31:17;;;;;;;23.08;20.88;;;;;;;12.93;100.00;101208.19;5043370;28;20444;-78
2022/09/24 10:33:45;;;;;;;23.80;21.58;;;;;;;12.98;100.00;101221.63;5029736;28;20373;-78
2022/09/24 10:36:23;;;;;;;24.10;21.70;;;;;;;13.03;100.00;101222.88;5031331;28;20111;-78
2022/09/24 10:39:12;;;;;;;25.20;22.73;;;;;;;12.98;100.00;101219.03;5040700;28;20512;-78
2022/09/24 10:41:48;;;;;;;24.00;21.70;;;;;;;13.00;100.00;101224.91;5038622;28;20116;-79
2022/09/24 10:44:16;;;;;;;24.50;22.17;;;;;;;12.93;100.00;101213.38;5038790;28;20510;-79
2022/09/24 10:47:00;;;;;;;23.67;21.58;;;;;;;13.03;100.00;101219.47;5074118;23;20492;-78
2022/09/24 10:49:34;;;;;;;24.60;22.30;;;;;;;12.97;100.00;101228.63;5041793;28;20029;-78
2022/09/24 10:52:11;;;;;;;25.35;22.88;;;;;;;12.99;100.00;101218.06;5049079;28;20043;-78
2022/09/24 10:54:56;;;;;;;23.70;21.50;;;;;;;13.03;100.00;101227.28;5039490;28;20041;-78
2022/09/24 10:57:33;;;;;;;23.38;21.17;;;;;;;13.00;100.00;101224.91;5040376;28;20105;-79
2022/09/24 11:00:21;;;;;;;23.25;21.05;;;;;;;13.00;100.00;101224.91;5022879;28;20059;-78
2022/09/24 11:03:05;;;;;;;;;;;;;;;13.16;100.00;101225.25;5041751;28;20321;-79
2022/09/24 11:05:36;;;;;;;24.05;21.83;;;;;;;12.98;100.00;101222.44;5051299;28;19928;-79
2022/09/24 11:08:43;;;;;;;24.92;22.50;;;;;;;13.09;100.00;101224.16;5025864;28;20598;-79
2022/09/24 11:11:19;;;;;;;25.30;22.98;;;;;;;13.01;100.00;101227.38;5037373;28;20120;-79
2022/09/24 11:14:36;;;;;;;25.13;22.63;;;;;;;13.10;100.00;101236.19;5037346;28;20032;-79
2022/09/24 11:17:31;;;;;;;25.35;22.85;;;;;;;13.12;100.00;101234.28;4985064;28;20050;-78
2022/09/24 11:20:02;;;;;;;23.55;21.35;;;;;;;13.08;100.00;101237.31;4978355;28;20034;-78
2022/09/24 11:22:27;;;;;;;24.92;22.52;;;;;;;13.02;100.00;101233.44;4986474;28;20046;-78
2022/09/24 11:25:23;;;;;;;26.23;23.65;;;;;;;13.03;100.00;101240.28;4967953;28;20538;-79
2022/09/24 11:28:27;;;;;;;25.65;23.15;;;;;;;13.10;100.00;101236.19;4982387;28;20110;-79